BYX weather

Baniyala Airport
Baniyala, Northern Territory, Australia

Public forecast

Using degrees Celsius for public forecast. Weather courtesy of forecast.io.

Closest aviation weather report (METAR) to Baniyala Airport

Closest report is Groote Eylandt Airport, 48.6 nm (90.0 km) SSE. Retrieved 2020/06/02 12:00 UTC (27 minutes ago):

YGTE 021200Z AUTO 12005KT 9999 // NCD 22/15 Q1018

Closest aviation forecast (TAF) to Baniyala Airport

Closest forecast is Gove Airport, 65.6 nm (121.5 km) NNE. Retrieved 2020/06/02 08:00 UTC (4 hours ago):

TAF YPGV 020605Z 0208/0220 14018KT 9999 SCT035 FM020900 14014KT 9999 FEW020